sensor_id;sensor_type;location;lat;lon;timestamp;pressure;altitude;pressure_sealevel;temperature;humidity
16120;BME280;12670;53.502;10.252;2023-04-26T00:00:25;101059.56;;;5.27;100.00
16120;BME280;12670;53.502;10.252;2023-04-26T00:03:29;101060.91;;;5.54;100.00
16120;BME280;12670;53.502;10.252;2023-04-26T00:06:34;101061.00;;;5.48;100.00
16120;BME280;12670;53.502;10.252;2023-04-26T00:09:37;101064.63;;;5.39;99.60
16120;BME280;12670;53.502;10.252;2023-04-26T00:12:41;101061.47;;;5.16;100.00
16120;BME280;12670;53.502;10.252;2023-04-26T00:15:44;101066.22;;;5.52;100.00
16120;BME280;12670;53.502;10.252;2023-04-26T00:18:47;101058.25;;;5.55;99.44
16120;BME280;12670;53.502;10.252;2023-04-26T00:21:51;101056.66;;;5.47;98.81
16120;BME280;12670;53.502;10.252;2023-04-26T00:24:53;101059.81;;;5.67;99.80
16120;BME280;12670;53.502;10.252;2023-04-26T00:27:56;101062.41;;;5.69;97.67
16120;BME280;12670;53.502;10.252;2023-04-26T00:30:59;101071.03;;;5.21;99.48
16120;BME280;12670;53.502;10.252;2023-04-26T00:34:01;101072.72;;;5.28;99.17
16120;BME280;12670;53.502;10.252;2023-04-26T00:37:05;101074.16;;;5.48;99.16
16120;BME280;12670;53.502;10.252;2023-04-26T00:40:09;101071.88;;;5.25;99.86
16120;BME280;12670;53.502;10.252;2023-04-26T00:43:12;101068.69;;;5.04;99.55
16120;BME280;12670;53.502;10.252;2023-04-26T00:46:15;101071.06;;;5.20;100.00
16120;BME280;12670;53.502;10.252;2023-04-26T00:49:20;101070.34;;;5.08;100.00
16120;BME280;12670;53.502;10.252;2023-04-26T00:52:25;101055.16;;;5.27;100.00
16120;BME280;12670;53.502;10.252;2023-04-26T00:55:28;101065.09;;;5.10;100.00
16120;BME280;12670;53.502;10.252;2023-04-26T00:58:31;101063.38;;;5.07;100.00
16120;BME280;12670;53.502;10.252;2023-04-26T01:01:34;101065.09;;;5.08;100.00
16120;BME280;12670;53.502;10.252;2023-04-26T01:04:38;101070.47;;;5.01;100.00
16120;BME280;12670;53.502;10.252;2023-04-26T01:07:43;101070.09;;;5.27;100.00
16120;BME280;12670;53.502;10.252;2023-04-26T01:10:47;101071.84;;;5.26;100.00
16120;BME280;12670;53.502;10.252;2023-04-26T01:13:50;101072.59;;;5.36;100.00
16120;BME280;12670;53.502;10.252;2023-04-26T01:16:53;101072.81;;;5.21;100.00
16120;BME280;12670;53.502;10.252;2023-04-26T01:19:56;101075.50;;;5.18;100.00
16120;BME280;12670;53.502;10.252;2023-04-26T01:23:00;101084.31;;;5.14;100.00
16120;BME280;12670;53.502;10.252;2023-04-26T01:26:03;101082.75;;;5.00;100.00
16120;BME280;12670;53.502;10.252;2023-04-26T01:29:12;101080.78;;;5.16;100.00
16120;BME280;12670;53.502;10.252;2023-04-26T01:32:15;101087.63;;;5.28;100.00
16120;BME280;12670;53.502;10.252;2023-04-26T01:35:18;101083.84;;;5.47;100.00
16120;BME280;12670;53.502;10.252;2023-04-26T01:38:22;101082.91;;;5.50;100.00
16120;BME280;12670;53.502;10.252;2023-04-26T01:41:25;101088.22;;;5.47;100.00
16120;BME280;12670;53.502;10.252;2023-04-26T01:44:27;101092.91;;;5.28;100.00
16120;BME280;12670;53.502;10.252;2023-04-26T01:47:30;101094.75;;;5.20;100.00
16120;BME280;12670;53.502;10.252;2023-04-26T01:50:33;101094.91;;;5.11;100.00
16120;BME280;12670;53.502;10.252;2023-04-26T01:53:37;101096.47;;;5.21;100.00
16120;BME280;12670;53.502;10.252;2023-04-26T01:56:39;101086.19;;;5.05;100.00
16120;BME280;12670;53.502;10.252;2023-04-26T01:59:42;101090.47;;;5.13;100.00
16120;BME280;12670;53.502;10.252;2023-04-26T02:02:45;101088.72;;;5.13;100.00
16120;BME280;12670;53.502;10.252;2023-04-26T02:05:47;101087.72;;;5.22;100.00
16120;BME280;12670;53.502;10.252;2023-04-26T02:08:52;101095.53;;;5.28;100.00
16120;BME280;12670;53.502;10.252;2023-04-26T02:11:55;101095.56;;;5.25;100.00
16120;BME280;12670;53.502;10.252;2023-04-26T02:14:58;101086.84;;;5.20;100.00
16120;BME280;12670;53.502;10.252;2023-04-26T02:18:01;101093.84;;;5.22;100.00
16120;BME280;12670;53.502;10.252;2023-04-26T02:21:06;101088.69;;;5.15;100.00
16120;BME280;12670;53.502;10.252;2023-04-26T02:24:10;101089.50;;;5.20;100.00
16120;BME280;12670;53.502;10.252;2023-04-26T02:27:13;101094.97;;;5.04;100.00
16120;BME280;12670;53.502;10.252;2023-04-26T02:30:16;101107.34;;;4.96;100.00
16120;BME280;12670;53.502;10.252;2023-04-26T02:33:18;101112.34;;;5.15;100.00
16120;BME280;12670;53.502;10.252;2023-04-26T02:36:21;101119.59;;;4.97;100.00
16120;BME280;12670;53.502;10.252;2023-04-26T02:39:25;101119.44;;;5.09;100.00
16120;BME280;12670;53.502;10.252;2023-04-26T02:42:27;101123.03;;;5.02;100.00
16120;BME280;12670;53.502;10.252;2023-04-26T02:45:30;101113.47;;;4.98;100.00
16120;BME280;12670;53.502;10.252;2023-04-26T02:48:33;101108.22;;;4.97;100.00
16120;BME280;12670;53.502;10.252;2023-04-26T02:51:35;101116.03;;;5.01;100.00
16120;BME280;12670;53.502;10.252;2023-04-26T02:54:39;101119.81;;;4.79;100.00
16120;BME280;12670;53.502;10.252;2023-04-26T02:57:42;101115.03;;;5.12;100.00
16120;BME280;12670;53.502;10.252;2023-04-26T03:00:45;101103.22;;;4.77;100.00
16120;BME280;12670;53.502;10.252;2023-04-26T03:03:48;101108.38;;;4.83;100.00
16120;BME280;12670;53.502;10.252;2023-04-26T03:06:52;101102.03;;;5.01;100.00
16120;BME280;12670;53.502;10.252;2023-04-26T03:09:56;101101.13;;;5.02;100.00
16120;BME280;12670;53.502;10.252;2023-04-26T03:12:58;101101.84;;;5.13;100.00
16120;BME280;12670;53.502;10.252;2023-04-26T03:16:01;101096.75;;;5.02;100.00
16120;BME280;12670;53.502;10.252;2023-04-26T03:19:03;101102.00;;;5.02;100.00
16120;BME280;12670;53.502;10.252;2023-04-26T03:22:06;101102.22;;;4.87;100.00
16120;BME280;12670;53.502;10.252;2023-04-26T03:25:10;101101.91;;;5.08;100.00
16120;BME280;12670;53.502;10.252;2023-04-26T03:28:13;101105.47;;;5.06;100.00
16120;BME280;12670;53.502;10.252;2023-04-26T03:31:16;101115.13;;;5.05;100.00
16120;BME280;12670;53.502;10.252;2023-04-26T03:34:19;101110.59;;;5.17;100.00
16120;BME280;12670;53.502;10.252;2023-04-26T03:37:22;101103.66;;;5.09;100.00
16120;BME280;12670;53.502;10.252;2023-04-26T03:40:26;101097.63;;;5.01;100.00
16120;BME280;12670;53.502;10.252;2023-04-26T03:43:28;101091.53;;;4.99;100.00
16120;BME280;12670;53.502;10.252;2023-04-26T03:46:31;101097.63;;;5.04;100.00
16120;BME280;12670;53.502;10.252;2023-04-26T03:49:34;101099.34;;;5.04;100.00
16120;BME280;12670;53.502;10.252;2023-04-26T03:52:36;101097.41;;;5.18;100.00
16120;BME280;12670;53.502;10.252;2023-04-26T03:55:40;101103.72;;;5.03;100.00
16120;BME280;12670;53.502;10.252;2023-04-26T03:58:43;101105.50;;;5.04;100.00
16120;BME280;12670;53.502;10.252;2023-04-26T04:01:46;101104.53;;;5.08;100.00
16120;BME280;12670;53.502;10.252;2023-04-26T04:04:48;101102.88;;;5.03;100.00
16120;BME280;12670;53.502;10.252;2023-04-26T04:07:51;101102.41;;;4.69;100.00
16120;BME280;12670;53.502;10.252;2023-04-26T04:10:55;101108.50;;;4.72;100.00
16120;BME280;12670;53.502;10.252;2023-04-26T04:13:58;101111.16;;;4.71;100.00
16120;BME280;12670;53.502;10.252;2023-04-26T04:17:01;101116.38;;;4.74;100.00
16120;BME280;12670;53.502;10.252;2023-04-26T04:20:05;101117.31;;;4.70;100.00
16120;BME280;12670;53.502;10.252;2023-04-26T04:23:08;101117.56;;;4.45;100.00
16120;BME280;12670;53.502;10.252;2023-04-26T04:26:12;101114.72;;;4.67;100.00
16120;BME280;12670;53.502;10.252;2023-04-26T04:29:15;101113.78;;;4.71;100.00
16120;BME280;12670;53.502;10.252;2023-04-26T04:32:18;101114.69;;;4.70;100.00
16120;BME280;12670;53.502;10.252;2023-04-26T04:35:21;101117.03;;;4.93;100.00
16120;BME280;12670;53.502;10.252;2023-04-26T04:38:25;101117.94;;;4.90;100.00
16120;BME280;12670;53.502;10.252;2023-04-26T04:41:31;101122.28;;;4.94;100.00
16120;BME280;12670;53.502;10.252;2023-04-26T04:44:34;101124.75;;;5.06;100.00
16120;BME280;12670;53.502;10.252;2023-04-26T04:47:38;101127.28;;;5.13;100.00
16120;BME280;12670;53.502;10.252;2023-04-26T04:50:41;101130.91;;;5.02;100.00
16120;BME280;12670;53.502;10.252;2023-04-26T04:53:43;101134.53;;;4.95;100.00
16120;BME280;12670;53.502;10.252;2023-04-26T04:56:47;101139.97;;;4.80;100.00
16120;BME280;12670;53.502;10.252;2023-04-26T04:59:50;101146.03;;;4.85;100.00
16120;BME280;12670;53.502;10.252;2023-04-26T05:02:52;101153.94;;;4.87;100.00
16120;BME280;12670;53.502;10.252;2023-04-26T05:05:55;101142.25;;;5.07;100.00
16120;BME280;12670;53.502;10.252;2023-04-26T05:08:59;101148.66;;;4.85;100.00
16120;BME280;12670;53.502;10.252;2023-04-26T05:12:03;101155.88;;;4.68;100.00
16120;BME280;12670;53.502;10.252;2023-04-26T05:15:06;101154.88;;;4.81;100.00
16120;BME280;12670;53.502;10.252;2023-04-26T05:18:09;101136.09;;;5.08;100.00
16120;BME280;12670;53.502;10.252;2023-04-26T05:21:12;101141.38;;;5.08;100.00
16120;BME280;12670;53.502;10.252;2023-04-26T05:24:14;101140.38;;;5.16;100.00
16120;BME280;12670;53.502;10.252;2023-04-26T05:27:18;101143.91;;;5.15;100.00
16120;BME280;12670;53.502;10.252;2023-04-26T05:30:21;101144.88;;;5.11;100.00
16120;BME280;12670;53.502;10.252;2023-04-26T05:33:24;101138.81;;;5.02;100.00
16120;BME280;12670;53.502;10.252;2023-04-26T05:36:26;101148.88;;;5.38;100.00
16120;BME280;12670;53.502;10.252;2023-04-26T05:39:30;101151.47;;;5.39;100.00
16120;BME280;12670;53.502;10.252;2023-04-26T05:42:34;101149.75;;;5.37;100.00
16120;BME280;12670;53.502;10.252;2023-04-26T05:45:37;101152.19;;;5.50;100.00
16120;BME280;12670;53.502;10.252;2023-04-26T05:48:41;101160.03;;;5.55;100.00
16120;BME280;12670;53.502;10.252;2023-04-26T05:51:43;101164.53;;;5.45;100.00
16120;BME280;12670;53.502;10.252;2023-04-26T05:54:46;101168.28;;;5.29;100.00
16120;BME280;12670;53.502;10.252;2023-04-26T05:57:50;101172.16;;;5.65;100.00
16120;BME280;12670;53.502;10.252;2023-04-26T06:00:53;101170.97;;;5.86;100.00
16120;BME280;12670;53.502;10.252;2023-04-26T06:03:55;101172.34;;;5.53;100.00
16120;BME280;12670;53.502;10.252;2023-04-26T06:07:01;101167.34;;;5.96;100.00
16120;BME280;12670;53.502;10.252;2023-04-26T06:10:05;101167.97;;;6.12;100.00
16120;BME280;12670;53.502;10.252;2023-04-26T06:13:09;101177.47;;;6.21;100.00
16120;BME280;12670;53.502;10.252;2023-04-26T06:16:11;101158.50;;;6.00;100.00
16120;BME280;12670;53.502;10.252;2023-04-26T06:19:14;101156.75;;;5.99;100.00
16120;BME280;12670;53.502;10.252;2023-04-26T06:22:17;101163.50;;;6.15;100.00
16120;BME280;12670;53.502;10.252;2023-04-26T06:25:19;101166.13;;;6.17;100.00
16120;BME280;12670;53.502;10.252;2023-04-26T06:28:23;101159.00;;;6.22;100.00
16120;BME280;12670;53.502;10.252;2023-04-26T06:31:26;101173.53;;;6.46;100.00
16120;BME280;12670;53.502;10.252;2023-04-26T06:34:28;101164.94;;;6.35;100.00
16120;BME280;12670;53.502;10.252;2023-04-26T06:37:32;101166.19;;;6.63;100.00
16120;BME280;12670;53.502;10.252;2023-04-26T06:40:34;101169.28;;;6.84;100.00
16120;BME280;12670;53.502;10.252;2023-04-26T06:43:39;101166.69;;;6.82;99.54
16120;BME280;12670;53.502;10.252;2023-04-26T06:46:42;101170.44;;;7.15;99.54
16120;BME280;12670;53.502;10.252;2023-04-26T06:49:45;101162.34;;;7.23;96.97
16120;BME280;12670;53.502;10.252;2023-04-26T06:52:47;101165.38;;;7.03;95.75
16120;BME280;12670;53.502;10.252;2023-04-26T06:55:50;101160.09;;;7.03;96.70
16120;BME280;12670;53.502;10.252;2023-04-26T06:59:02;101153.09;;;7.02;95.61
16120;BME280;12670;53.502;10.252;2023-04-26T07:02:05;101166.66;;;7.26;97.13
16120;BME280;12670;53.502;10.252;2023-04-26T07:05:08;101164.47;;;7.46;95.37
16120;BME280;12670;53.502;10.252;2023-04-26T07:08:11;101165.25;;;7.49;94.95
16120;BME280;12670;53.502;10.252;2023-04-26T07:11:15;101163.13;;;7.27;93.71
16120;BME280;12670;53.502;10.252;2023-04-26T07:14:19;101164.25;;;7.16;92.54
16120;BME280;12670;53.502;10.252;2023-04-26T07:17:21;101178.91;;;7.30;93.10
16120;BME280;12670;53.502;10.252;2023-04-26T07:20:24;101176.19;;;7.73;92.16
16120;BME280;12670;53.502;10.252;2023-04-26T07:23:27;101174.41;;;7.73;90.04
16120;BME280;12670;53.502;10.252;2023-04-26T07:26:30;101175.41;;;7.68;89.62
16120;BME280;12670;53.502;10.252;2023-04-26T07:29:34;101177.91;;;7.75;86.87
16120;BME280;12670;53.502;10.252;2023-04-26T07:32:37;101176.69;;;7.89;86.89
16120;BME280;12670;53.502;10.252;2023-04-26T07:35:41;101181.31;;;7.81;86.79
16120;BME280;12670;53.502;10.252;2023-04-26T07:38:44;101179.69;;;7.73;87.89
16120;BME280;12670;53.502;10.252;2023-04-26T07:41:47;101190.00;;;8.21;87.03
16120;BME280;12670;53.502;10.252;2023-04-26T07:44:51;101187.69;;;8.43;85.30
16120;BME280;12670;53.502;10.252;2023-04-26T07:47:53;101182.41;;;8.43;84.22
16120;BME280;12670;53.502;10.252;2023-04-26T07:50:56;101185.25;;;8.36;83.64
16120;BME280;12670;53.502;10.252;2023-04-26T07:53:59;101189.75;;;7.95;82.54
16120;BME280;12670;53.502;10.252;2023-04-26T07:57:02;101185.47;;;7.89;84.01
16120;BME280;12670;53.502;10.252;2023-04-26T08:00:07;101192.22;;;8.40;82.16
16120;BME280;12670;53.502;10.252;2023-04-26T08:03:13;101181.88;;;8.96;81.05
16120;BME280;12670;53.502;10.252;2023-04-26T08:06:17;101190.38;;;9.07;78.35
16120;BME280;12670;53.502;10.252;2023-04-26T08:09:19;101191.25;;;9.07;74.94
16120;BME280;12670;53.502;10.252;2023-04-26T08:12:22;101182.25;;;9.13;74.26
16120;BME280;12670;53.502;10.252;2023-04-26T08:15:26;101181.47;;;9.11;74.61
16120;BME280;12670;53.502;10.252;2023-04-26T08:18:29;101192.97;;;9.08;72.55
16120;BME280;12670;53.502;10.252;2023-04-26T08:21:31;101206.50;;;8.99;71.09
16120;BME280;12670;53.502;10.252;2023-04-26T08:24:34;101204.88;;;8.61;72.66
16120;BME280;12670;53.502;10.252;2023-04-26T08:27:37;101216.84;;;8.42;75.48
16120;BME280;12670;53.502;10.252;2023-04-26T08:30:41;101250.22;;;7.27;90.99
16120;BME280;12670;53.502;10.252;2023-04-26T08:33:44;101251.94;;;6.83;98.71
16120;BME280;12670;53.502;10.252;2023-04-26T08:36:46;101234.50;;;6.76;100.00
16120;BME280;12670;53.502;10.252;2023-04-26T08:39:50;101242.66;;;7.08;100.00
16120;BME280;12670;53.502;10.252;2023-04-26T08:42:52;101244.97;;;7.25;100.00
16120;BME280;12670;53.502;10.252;2023-04-26T08:45:57;101237.50;;;7.02;100.00
16120;BME280;12670;53.502;10.252;2023-04-26T08:49:19;101237.22;;;7.17;100.00
16120;BME280;12670;53.502;10.252;2023-04-26T08:52:26;101235.38;;;7.22;100.00
16120;BME280;12670;53.502;10.252;2023-04-26T08:55:29;101238.59;;;7.37;100.00
16120;BME280;12670;53.502;10.252;2023-04-26T08:58:36;101235.31;;;7.66;100.00
16120;BME280;12670;53.502;10.252;2023-04-26T09:01:42;101235.19;;;7.72;100.00
16120;BME280;12670;53.502;10.252;2023-04-26T09:04:45;101241.72;;;7.94;100.00
16120;BME280;12670;53.502;10.252;2023-04-26T09:07:49;101234.59;;;8.37;100.00
16120;BME280;12670;53.502;10.252;2023-04-26T09:10:53;101241.53;;;8.41;97.37
16120;BME280;12670;53.502;10.252;2023-04-26T09:13:56;101229.91;;;8.48;95.69
16120;BME280;12670;53.502;10.252;2023-04-26T09:17:00;101235.13;;;8.84;95.20
16120;BME280;12670;53.502;10.252;2023-04-26T09:20:17;101232.41;;;9.50;90.64
16120;BME280;12670;53.502;10.252;2023-04-26T09:23:21;101220.69;;;10.15;90.80
16120;BME280;12670;53.502;10.252;2023-04-26T09:26:24;101233.28;;;10.07;89.24
16120;BME280;12670;53.502;10.252;2023-04-26T09:29:26;101232.16;;;9.28;86.00
16120;BME280;12670;53.502;10.252;2023-04-26T09:32:42;101242.25;;;8.81;86.88
16120;BME280;12670;53.502;10.252;2023-04-26T09:35:45;101247.88;;;8.32;88.26
16120;BME280;12670;53.502;10.252;2023-04-26T09:38:48;101237.69;;;8.54;88.01
16120;BME280;12670;53.502;10.252;2023-04-26T09:41:51;101240.22;;;8.59;85.96
16120;BME280;12670;53.502;10.252;2023-04-26T09:45:04;101232.31;;;8.57;85.30
16120;BME280;12670;53.502;10.252;2023-04-26T09:48:16;101230.66;;;9.18;85.07
16120;BME280;12670;53.502;10.252;2023-04-26T09:51:19;101228.75;;;9.82;80.55
16120;BME280;12670;53.502;10.252;2023-04-26T09:54:37;101223.53;;;10.07;79.90
16120;BME280;12670;53.502;10.252;2023-04-26T09:57:42;101226.44;;;10.56;75.23
16120;BME280;12670;53.502;10.252;2023-04-26T10:00:49;101228.78;;;10.38;74.68
16120;BME280;12670;53.502;10.252;2023-04-26T10:03:54;101224.75;;;10.78;69.41
16120;BME280;12670;53.502;10.252;2023-04-26T10:06:57;101220.47;;;10.74;67.91
16120;BME280;12670;53.502;10.252;2023-04-26T10:10:00;101216.03;;;11.00;66.29
16120;BME280;12670;53.502;10.252;2023-04-26T10:13:04;101224.81;;;11.25;62.27
16120;BME280;12670;53.502;10.252;2023-04-26T10:16:08;101229.25;;;10.76;54.61
16120;BME280;12670;53.502;10.252;2023-04-26T10:19:12;101205.41;;;11.00;54.39
16120;BME280;12670;53.502;10.252;2023-04-26T10:22:19;101215.25;;;11.91;53.93
16120;BME280;12670;53.502;10.252;2023-04-26T10:25:33;101216.41;;;11.84;52.12
16120;BME280;12670;53.502;10.252;2023-04-26T10:28:54;101217.41;;;12.04;51.29
16120;BME280;12670;53.502;10.252;2023-04-26T10:32:07;101201.03;;;10.74;53.09
16120;BME280;12670;53.502;10.252;2023-04-26T10:35:14;101217.97;;;10.70;55.69
16120;BME280;12670;53.502;10.252;2023-04-26T10:38:18;101231.47;;;10.63;60.00
16120;BME280;12670;53.502;10.252;2023-04-26T10:41:32;101236.28;;;9.68;65.06
16120;BME280;12670;53.502;10.252;2023-04-26T10:44:37;101248.19;;;8.57;71.26
16120;BME280;12670;53.502;10.252;2023-04-26T10:47:41;101242.25;;;8.47;72.14
16120;BME280;12670;53.502;10.252;2023-04-26T10:51:09;101254.41;;;8.89;74.30
16120;BME280;12670;53.502;10.252;2023-04-26T10:54:13;101241.94;;;8.94;73.97
16120;BME280;12670;53.502;10.252;2023-04-26T10:57:16;101243.25;;;9.10;74.18
16120;BME280;12670;53.502;10.252;2023-04-26T11:00:29;101237.69;;;9.50;74.46
16120;BME280;12670;53.502;10.252;2023-04-26T11:03:33;101236.41;;;9.03;70.90
16120;BME280;12670;53.502;10.252;2023-04-26T11:06:48;101241.38;;;9.74;71.48
16120;BME280;12670;53.502;10.252;2023-04-26T11:09:51;101247.84;;;9.94;67.51
16120;BME280;12670;53.502;10.252;2023-04-26T11:12:59;101248.31;;;9.78;67.66
16120;BME280;12670;53.502;10.252;2023-04-26T11:16:04;101237.47;;;10.14;68.65
16120;BME280;12670;53.502;10.252;2023-04-26T11:19:08;101237.75;;;10.34;68.96
16120;BME280;12670;53.502;10.252;2023-04-26T11:22:12;101246.22;;;10.18;70.85
16120;BME280;12670;53.502;10.252;2023-04-26T11:25:15;101244.16;;;9.99;71.96
16120;BME280;12670;53.502;10.252;2023-04-26T11:28:18;101243.19;;;9.72;72.96
16120;BME280;12670;53.502;10.252;2023-04-26T11:31:22;101258.88;;;9.50;77.13
16120;BME280;12670;53.502;10.252;2023-04-26T11:34:30;101254.09;;;9.32;79.97
16120;BME280;12670;53.502;10.252;2023-04-26T11:37:35;101261.91;;;9.05;81.59
16120;BME280;12670;53.502;10.252;2023-04-26T11:40:38;101250.50;;;9.34;83.32
16120;BME280;12670;53.502;10.252;2023-04-26T11:43:42;101248.53;;;9.41;82.47
16120;BME280;12670;53.502;10.252;2023-04-26T11:46:46;101250.22;;;9.44;81.89
16120;BME280;12670;53.502;10.252;2023-04-26T11:49:49;101247.38;;;9.51;81.53
16120;BME280;12670;53.502;10.252;2023-04-26T11:52:55;101248.22;;;9.52;80.90
16120;BME280;12670;53.502;10.252;2023-04-26T11:55:58;101245.13;;;9.97;80.00
16120;BME280;12670;53.502;10.252;2023-04-26T11:59:01;101243.38;;;10.24;76.64
16120;BME280;12670;53.502;10.252;2023-04-26T12:02:05;101247.84;;;10.22;74.74
16120;BME280;12670;53.502;10.252;2023-04-26T12:05:08;101251.03;;;10.86;72.19
16120;BME280;12670;53.502;10.252;2023-04-26T12:08:13;101244.53;;;11.90;69.45
16120;BME280;12670;53.502;10.252;2023-04-26T12:11:16;101255.34;;;12.73;62.03
16120;BME280;12670;53.502;10.252;2023-04-26T12:14:18;101243.66;;;13.37;60.85
16120;BME280;12670;53.502;10.252;2023-04-26T12:17:21;101255.88;;;13.01;58.48
16120;BME280;12670;53.502;10.252;2023-04-26T12:20:27;101251.75;;;12.74;59.15
16120;BME280;12670;53.502;10.252;2023-04-26T12:23:37;101251.88;;;13.12;59.00
16120;BME280;12670;53.502;10.252;2023-04-26T12:26:41;101259.72;;;13.55;57.58
16120;BME280;12670;53.502;10.252;2023-04-26T12:29:45;101255.88;;;14.18;53.20
16120;BME280;12670;53.502;10.252;2023-04-26T12:32:47;101245.78;;;14.05;51.12
16120;BME280;12670;53.502;10.252;2023-04-26T12:35:50;101248.22;;;14.82;48.65
16120;BME280;12670;53.502;10.252;2023-04-26T12:38:54;101246.72;;;14.94;46.10
16120;BME280;12670;53.502;10.252;2023-04-26T12:41:58;101236.91;;;14.41;45.67
16120;BME280;12670;53.502;10.252;2023-04-26T12:45:00;101233.47;;;15.26;46.83
16120;BME280;12670;53.502;10.252;2023-04-26T12:48:04;101239.78;;;15.25;46.16
16120;BME280;12670;53.502;10.252;2023-04-26T12:51:07;101235.16;;;15.93;45.40
16120;BME280;12670;53.502;10.252;2023-04-26T12:54:11;101249.28;;;15.30;43.05
16120;BME280;12670;53.502;10.252;2023-04-26T12:57:13;101239.69;;;15.26;44.10
16120;BME280;12670;53.502;10.252;2023-04-26T13:00:17;101247.88;;;15.56;42.72
16120;BME280;12670;53.502;10.252;2023-04-26T13:03:20;101237.78;;;15.61;42.31
16120;BME280;12670;53.502;10.252;2023-04-26T13:06:22;101245.31;;;16.34;41.66
16120;BME280;12670;53.502;10.252;2023-04-26T13:09:26;101241.25;;;15.63;43.26
16120;BME280;12670;53.502;10.252;2023-04-26T13:12:29;101249.53;;;14.20;44.90
16120;BME280;12670;53.502;10.252;2023-04-26T13:15:32;101243.78;;;13.54;47.04
16120;BME280;12670;53.502;10.252;2023-04-26T13:18:35;101265.63;;;13.43;44.63
16120;BME280;12670;53.502;10.252;2023-04-26T13:21:38;101257.06;;;12.94;42.34
16120;BME280;12670;53.502;10.252;2023-04-26T13:24:43;101261.94;;;12.42;42.02
16120;BME280;12670;53.502;10.252;2023-04-26T13:27:45;101269.88;;;12.22;41.60
16120;BME280;12670;53.502;10.252;2023-04-26T13:30:48;101263.34;;;11.85;43.02
16120;BME280;12670;53.502;10.252;2023-04-26T13:33:51;101263.94;;;12.15;43.74
16120;BME280;12670;53.502;10.252;2023-04-26T13:36:54;101270.94;;;13.23;44.23
16120;BME280;12670;53.502;10.252;2023-04-26T13:39:59;101268.59;;;13.36;42.79
16120;BME280;12670;53.502;10.252;2023-04-26T13:43:02;101260.25;;;14.01;41.42
16120;BME280;12670;53.502;10.252;2023-04-26T13:46:04;101266.84;;;13.93;43.26
16120;BME280;12670;53.502;10.252;2023-04-26T13:49:07;101257.63;;;14.55;43.62
16120;BME280;12670;53.502;10.252;2023-04-26T13:52:10;101262.72;;;14.59;42.45
16120;BME280;12670;53.502;10.252;2023-04-26T13:55:14;101266.28;;;14.41;43.97
16120;BME280;12670;53.502;10.252;2023-04-26T13:58:17;101266.44;;;14.38;43.15
16120;BME280;12670;53.502;10.252;2023-04-26T14:01:20;101259.78;;;14.10;43.90
16120;BME280;12670;53.502;10.252;2023-04-26T14:04:22;101263.03;;;13.79;44.59
16120;BME280;12670;53.502;10.252;2023-04-26T14:07:25;101272.84;;;14.53;44.45
16120;BME280;12670;53.502;10.252;2023-04-26T14:10:29;101271.69;;;14.03;42.09
16120;BME280;12670;53.502;10.252;2023-04-26T14:13:32;101272.75;;;13.99;41.65
16120;BME280;12670;53.502;10.252;2023-04-26T14:16:35;101278.50;;;13.71;42.46
16120;BME280;12670;53.502;10.252;2023-04-26T14:19:37;101285.72;;;13.10;44.42
16120;BME280;12670;53.502;10.252;2023-04-26T14:22:40;101295.19;;;12.96;45.12
16120;BME280;12670;53.502;10.252;2023-04-26T14:25:44;101290.31;;;12.43;45.89
16120;BME280;12670;53.502;10.252;2023-04-26T14:28:46;101291.75;;;13.13;45.54
16120;BME280;12670;53.502;10.252;2023-04-26T14:31:49;101288.81;;;13.21;43.99
16120;BME280;12670;53.502;10.252;2023-04-26T14:34:52;101288.38;;;13.30;43.71
16120;BME280;12670;53.502;10.252;2023-04-26T14:37:55;101280.47;;;13.68;42.91
16120;BME280;12670;53.502;10.252;2023-04-26T14:40:59;101277.00;;;13.66;41.65
16120;BME280;12670;53.502;10.252;2023-04-26T14:44:01;101285.53;;;13.74;40.21
16120;BME280;12670;53.502;10.252;2023-04-26T14:47:04;101290.50;;;13.01;40.45
16120;BME280;12670;53.502;10.252;2023-04-26T14:50:08;101303.16;;;12.54;41.32
16120;BME280;12670;53.502;10.252;2023-04-26T14:53:11;101296.22;;;12.28;42.39
16120;BME280;12670;53.502;10.252;2023-04-26T14:56:15;101299.81;;;12.27;41.13
16120;BME280;12670;53.502;10.252;2023-04-26T14:59:18;101292.13;;;12.41;40.51
16120;BME280;12670;53.502;10.252;2023-04-26T15:02:20;101293.34;;;12.54;38.83
16120;BME280;12670;53.502;10.252;2023-04-26T15:05:23;101298.63;;;12.34;39.93
16120;BME280;12670;53.502;10.252;2023-04-26T15:08:26;101294.25;;;12.33;39.95
16120;BME280;12670;53.502;10.252;2023-04-26T15:11:30;101283.38;;;11.94;40.44
16120;BME280;12670;53.502;10.252;2023-04-26T15:14:32;101294.78;;;11.97;42.99
16120;BME280;12670;53.502;10.252;2023-04-26T15:17:35;101299.56;;;11.88;43.92
16120;BME280;12670;53.502;10.252;2023-04-26T15:20:38;101297.63;;;11.93;45.39
16120;BME280;12670;53.502;10.252;2023-04-26T15:23:41;101293.47;;;12.08;46.47
16120;BME280;12670;53.502;10.252;2023-04-26T15:26:45;101299.19;;;12.42;45.51
16120;BME280;12670;53.502;10.252;2023-04-26T15:29:48;101298.75;;;12.31;44.62
16120;BME280;12670;53.502;10.252;2023-04-26T15:32:51;101308.34;;;12.35;44.55
16120;BME280;12670;53.502;10.252;2023-04-26T15:35:53;101299.41;;;11.92;43.69
16120;BME280;12670;53.502;10.252;2023-04-26T15:38:56;101315.97;;;11.75;45.49
16120;BME280;12670;53.502;10.252;2023-04-26T15:42:00;101297.19;;;11.80;46.58
16120;BME280;12670;53.502;10.252;2023-04-26T15:45:03;101307.19;;;11.73;45.96
16120;BME280;12670;53.502;10.252;2023-04-26T15:48:06;101309.53;;;11.58;45.05
16120;BME280;12670;53.502;10.252;2023-04-26T15:51:09;101317.56;;;11.31;45.60